createdAt,value
2023-02-11T00:00:17.872Z,109.10
2023-02-11T00:00:49.947Z,108.30
2023-02-11T00:01:29.431Z,108.60
2023-02-11T00:02:01.350Z,111.87
2023-02-11T00:02:33.591Z,107.73
2023-02-11T00:03:05.528Z,109.27
2023-02-11T00:03:37.537Z,118.63
2023-02-11T00:04:09.377Z,110.47
2023-02-11T00:04:41.293Z,112.63
2023-02-11T00:05:13.267Z,111.33
2023-02-11T00:05:45.105Z,110.63
2023-02-11T00:06:16.989Z,114.40
2023-02-11T00:06:48.835Z,120.43
2023-02-11T00:07:20.668Z,119.40
2023-02-11T00:07:52.448Z,119.90
2023-02-11T00:08:24.260Z,121.50
2023-02-11T00:08:56.247Z,125.60
2023-02-11T00:09:30.317Z,125.17
2023-02-11T00:10:04.365Z,127.97
2023-02-11T00:10:36.201Z,119.53
2023-02-11T00:11:08.145Z,111.67
2023-02-11T00:11:39.960Z,110.20
2023-02-11T00:12:11.769Z,117.20
2023-02-11T00:12:43.609Z,120.00
2023-02-11T00:13:15.407Z,117.23
2023-02-11T00:13:47.285Z,115.40
2023-02-11T00:14:19.084Z,112.07
2023-02-11T00:14:50.931Z,111.90
2023-02-11T00:15:22.905Z,111.73
2023-02-11T00:15:54.905Z,111.97
2023-02-11T00:16:27.025Z,115.70
2023-02-11T00:16:58.872Z,115.87
2023-02-11T00:17:30.697Z,115.17
2023-02-11T00:18:02.584Z,111.93
2023-02-11T00:18:34.445Z,121.47
2023-02-11T00:19:06.778Z,121.40
2023-02-11T00:19:38.575Z,120.23
2023-02-11T00:20:10.665Z,120.67
2023-02-11T00:20:42.637Z,126.70
2023-02-11T00:21:19.122Z,125.53
2023-02-11T00:21:50.908Z,131.17
2023-02-11T00:22:22.810Z,136.07
2023-02-11T00:22:54.631Z,137.23
2023-02-11T00:23:26.420Z,136.97
2023-02-11T00:23:59.882Z,142.90
2023-02-11T00:24:31.907Z,142.13
2023-02-11T00:25:03.804Z,136.93
2023-02-11T00:25:43.282Z,126.27
2023-02-11T00:26:25.780Z,125.37
2023-02-11T00:26:57.710Z,118.27
2023-02-11T00:27:29.507Z,120.63
2023-02-11T00:28:01.365Z,122.60
2023-02-11T00:28:33.240Z,129.60
2023-02-11T00:29:05.606Z,126.73
2023-02-11T00:29:38.204Z,123.17
2023-02-11T00:30:11.087Z,118.63
2023-02-11T00:30:43.032Z,116.33
2023-02-11T00:31:15.320Z,112.13
2023-02-11T00:31:47.378Z,106.37
2023-02-11T00:32:19.309Z,110.17
2023-02-11T00:32:51.099Z,110.37
2023-02-11T00:33:22.974Z,107.70
2023-02-11T00:33:54.892Z,106.07
2023-02-11T00:34:26.750Z,105.13
2023-02-11T00:34:58.697Z,106.57
2023-02-11T00:35:30.475Z,107.67
2023-02-11T00:36:13.826Z,105.23
2023-02-11T00:36:45.665Z,106.30
2023-02-11T00:37:17.458Z,108.67
2023-02-11T00:37:49.301Z,111.70
2023-02-11T00:38:21.082Z,111.43
2023-02-11T00:38:53.824Z,113.23
2023-02-11T00:39:25.599Z,119.67
2023-02-11T00:39:57.354Z,119.07
2023-02-11T00:40:29.129Z,117.97
2023-02-11T00:41:00.995Z,116.63
2023-02-11T00:41:32.870Z,118.27
2023-02-11T00:42:04.836Z,116.57
2023-02-11T00:42:37.460Z,115.10
2023-02-11T00:43:09.330Z,113.40
2023-02-11T00:43:41.929Z,113.60
2023-02-11T00:44:13.753Z,113.67
2023-02-11T00:44:45.663Z,115.83
2023-02-11T00:45:17.657Z,113.07
2023-02-11T00:45:49.805Z,114.90
2023-02-11T00:46:21.979Z,117.83
2023-02-11T00:46:53.907Z,112.83
2023-02-11T00:47:25.788Z,107.80
2023-02-11T00:47:57.710Z,110.30
2023-02-11T00:48:29.574Z,111.70
2023-02-11T00:49:01.447Z,113.63
2023-02-11T00:49:33.361Z,111.40
2023-02-11T00:50:05.625Z,110.40
2023-02-11T00:50:37.441Z,109.40
2023-02-11T00:51:09.311Z,113.27
2023-02-11T00:51:41.190Z,114.87
2023-02-11T00:52:13.036Z,113.90
2023-02-11T00:52:44.911Z,117.73
2023-02-11T00:53:16.716Z,111.93
2023-02-11T00:53:48.576Z,111.70
2023-02-11T00:54:20.448Z,111.80
2023-02-11T00:54:52.238Z,112.43
2023-02-11T00:55:24.029Z,111.87
2023-02-11T00:55:55.911Z,110.87
2023-02-11T00:56:27.712Z,111.30
2023-02-11T00:56:59.509Z,111.27
2023-02-11T00:57:31.350Z,106.43
2023-02-11T00:58:03.213Z,101.77
2023-02-11T00:58:35.353Z,103.53
2023-02-11T00:59:07.212Z,104.23
2023-02-11T00:59:39.091Z,101.17
2023-02-11T01:00:12.114Z,98.17
2023-02-11T01:00:43.971Z,96.40
2023-02-11T01:01:15.881Z,96.83
2023-02-11T01:01:47.779Z,95.57
2023-02-11T01:02:19.697Z,95.20
2023-02-11T01:02:51.484Z,98.83
2023-02-11T01:03:23.348Z,97.23
2023-02-11T01:03:55.134Z,96.80
2023-02-11T01:04:26.992Z,95.80
2023-02-11T01:05:00.208Z,97.33
2023-02-11T01:05:32.247Z,94.97
2023-02-11T01:06:04.889Z,93.60
2023-02-11T01:06:36.711Z,96.47
2023-02-11T01:07:08.657Z,96.47
2023-02-11T01:07:40.423Z,96.17
2023-02-11T01:08:12.360Z,99.03
2023-02-11T01:08:44.163Z,96.73
2023-02-11T01:09:15.961Z,95.70
2023-02-11T01:09:47.819Z,96.37
2023-02-11T01:10:19.704Z,96.47
2023-02-11T01:11:08.672Z,94.50
2023-02-11T01:11:40.522Z,92.30
2023-02-11T01:12:12.307Z,89.57
2023-02-11T01:12:44.149Z,92.73
2023-02-11T01:13:15.969Z,91.40
2023-02-11T01:13:48.363Z,91.20
2023-02-11T01:14:20.201Z,96.40
2023-02-11T01:14:52.147Z,94.77
2023-02-11T01:15:24.076Z,96.00
2023-02-11T01:15:56.088Z,98.33
2023-02-11T01:16:28.003Z,99.07
2023-02-11T01:16:59.841Z,101.13
2023-02-11T01:17:31.669Z,103.63
2023-02-11T01:18:05.180Z,104.50
2023-02-11T01:18:37.141Z,99.47
2023-02-11T01:19:08.954Z,103.27
2023-02-11T01:19:40.813Z,104.83
2023-02-11T01:20:16.740Z,103.90
2023-02-11T01:20:48.546Z,106.50
2023-02-11T01:21:20.461Z,109.73
2023-02-11T01:21:52.260Z,106.37
2023-02-11T01:22:24.124Z,105.23
2023-02-11T01:22:56.014Z,100.77
2023-02-11T01:23:27.842Z,93.93
2023-02-11T01:23:59.676Z,93.93
2023-02-11T01:24:31.480Z,97.70
2023-02-11T01:25:03.671Z,98.33
2023-02-11T01:25:35.510Z,95.30
2023-02-11T01:26:07.374Z,96.00
2023-02-11T01:26:39.275Z,94.27
2023-02-11T01:27:11.075Z,95.23
2023-02-11T01:27:42.954Z,94.50
2023-02-11T01:28:25.074Z,90.80
2023-02-11T01:28:56.920Z,90.33
2023-02-11T01:29:28.730Z,93.80
2023-02-11T01:30:00.544Z,99.40
2023-02-11T01:30:32.397Z,103.03
2023-02-11T01:31:04.541Z,109.57
2023-02-11T01:31:36.543Z,109.90
2023-02-11T01:32:08.439Z,113.70
2023-02-11T01:32:40.402Z,114.37
2023-02-11T01:33:12.236Z,115.00
2023-02-11T01:33:44.086Z,119.07
2023-02-11T01:34:16.170Z,119.57
2023-02-11T01:34:47.936Z,120.43
2023-02-11T01:35:20.846Z,104.97
2023-02-11T01:35:53.002Z,89.70
2023-02-11T01:36:25.191Z,88.57
2023-02-11T01:36:58.749Z,99.47
2023-02-11T01:37:32.610Z,106.53
2023-02-11T01:38:04.441Z,104.50
2023-02-11T01:38:36.331Z,104.07
2023-02-11T01:39:11.396Z,105.73
2023-02-11T01:39:43.226Z,107.93
2023-02-11T01:40:16.560Z,116.27
2023-02-11T01:41:01.819Z,119.57
2023-02-11T01:41:33.746Z,121.50
2023-02-11T01:42:05.876Z,127.57
2023-02-11T01:42:37.796Z,125.67
2023-02-11T01:43:10.859Z,140.83
2023-02-11T01:43:47.704Z,148.80
2023-02-11T01:44:23.101Z,150.23
2023-02-11T01:44:55.938Z,148.50
2023-02-11T01:45:54.071Z,151.40
2023-02-11T01:46:38.315Z,155.13
2023-02-11T01:47:10.334Z,161.33
2023-02-11T01:47:42.134Z,158.40
2023-02-11T01:48:16.360Z,159.43
2023-02-11T01:48:53.361Z,160.10
2023-02-11T01:49:31.094Z,156.83
2023-02-11T01:50:04.078Z,156.03
2023-02-11T01:50:36.135Z,154.27
2023-02-11T01:51:21.907Z,158.53
2023-02-11T01:52:04.631Z,158.93
2023-02-11T01:52:37.647Z,158.10
2023-02-11T01:53:27.981Z,159.17
2023-02-11T01:54:35.355Z,158.97
2023-02-11T01:55:29.140Z,157.13
2023-02-11T01:56:19.276Z,160.47
2023-02-11T01:57:10.354Z,161.40
2023-02-11T01:57:43.680Z,155.47
2023-02-11T01:58:15.478Z,153.07
2023-02-11T01:58:47.267Z,156.73
2023-02-11T01:59:22.796Z,159.13
2023-02-11T02:00:12.354Z,157.57
2023-02-11T02:00:44.162Z,157.47
2023-02-11T02:01:17.663Z,156.70
2023-02-11T02:01:53.504Z,156.33
2023-02-11T02:02:43.204Z,157.37
2023-02-11T02:03:20.215Z,153.20
2023-02-11T02:03:52.678Z,152.43
2023-02-11T02:04:27.524Z,153.47
2023-02-11T02:05:03.759Z,155.43
2023-02-11T02:05:49.584Z,154.67
2023-02-11T02:06:33.851Z,156.03
2023-02-11T02:07:14.503Z,159.07
2023-02-11T02:08:12.993Z,152.40
2023-02-11T02:08:50.319Z,154.03
2023-02-11T02:09:26.922Z,156.57
2023-02-11T02:10:01.248Z,151.77
2023-02-11T02:10:33.133Z,150.00
2023-02-11T02:11:05.012Z,154.17
2023-02-11T02:11:36.813Z,153.87
2023-02-11T02:12:08.652Z,155.27
2023-02-11T02:12:40.437Z,154.07
2023-02-11T02:13:12.464Z,155.77
2023-02-11T02:13:44.331Z,156.60
2023-02-11T02:14:16.137Z,153.57
2023-02-11T02:14:47.980Z,153.30
2023-02-11T02:15:25.396Z,159.97
2023-02-11T02:16:07.881Z,157.83
2023-02-11T02:16:41.462Z,154.20
2023-02-11T02:17:34.765Z,156.03
2023-02-11T02:18:49.047Z,154.63
2023-02-11T02:19:51.361Z,153.23
2023-02-11T02:21:08.284Z,153.67
2023-02-11T02:21:45.883Z,147.20
2023-02-11T02:22:25.018Z,146.20
2023-02-11T02:24:20.325Z,147.07
2023-02-11T02:25:06.890Z,143.63
2023-02-11T02:26:10.843Z,137.50
2023-02-11T02:26:54.613Z,142.87
2023-02-11T02:27:40.634Z,153.67
2023-02-11T02:28:45.050Z,152.37
2023-02-11T02:29:22.826Z,156.90
2023-02-11T02:30:00.108Z,153.30
2023-02-11T02:30:50.145Z,150.27
2023-02-11T02:31:52.687Z,153.87
2023-02-11T02:32:42.689Z,157.43
2023-02-11T02:33:22.152Z,160.57
2023-02-11T02:34:29.693Z,154.37
2023-02-11T02:35:19.548Z,153.73
2023-02-11T02:36:02.771Z,150.40
2023-02-11T02:37:00.223Z,147.27
2023-02-11T02:37:48.935Z,137.17
2023-02-11T02:39:53.450Z,119.43
2023-02-11T02:40:37.232Z,123.20
2023-02-11T02:41:11.341Z,123.90
2023-02-11T02:41:43.171Z,117.13
2023-02-11T02:42:14.945Z,119.23
2023-02-11T02:42:46.972Z,121.37
2023-02-11T02:43:18.809Z,122.13
2023-02-11T02:43:51.028Z,123.70
2023-02-11T02:44:22.908Z,128.03
2023-02-11T02:44:54.732Z,127.03
2023-02-11T02:45:26.523Z,122.27
2023-02-11T02:46:11.200Z,121.53
2023-02-11T02:46:43.020Z,116.37
2023-02-11T02:47:14.922Z,119.07
2023-02-11T02:47:46.696Z,120.27
2023-02-11T02:48:32.193Z,119.93
2023-02-11T02:49:04.189Z,116.50
2023-02-11T02:49:36.009Z,117.00
2023-02-11T02:50:08.203Z,117.23
2023-02-11T02:50:39.984Z,118.87
2023-02-11T02:51:15.905Z,116.80
2023-02-11T02:52:24.799Z,116.03
2023-02-11T02:53:02.476Z,119.07
2023-02-11T02:54:07.576Z,120.17
2023-02-11T02:54:53.202Z,117.53
2023-02-11T02:55:35.668Z,119.73
2023-02-11T02:56:16.005Z,115.77
2023-02-11T02:57:04.007Z,118.57
2023-02-11T02:57:47.795Z,119.67
2023-02-11T02:58:33.173Z,118.83
2023-02-11T02:59:13.935Z,119.67
2023-02-11T03:00:29.925Z,119.63
2023-02-11T03:01:30.420Z,120.13
2023-02-11T03:02:25.258Z,121.47
2023-02-11T03:03:15.478Z,113.97
2023-02-11T03:03:59.320Z,108.67
2023-02-11T03:04:53.815Z,104.80
2023-02-11T03:05:46.946Z,106.67
2023-02-11T03:06:39.517Z,106.90
2023-02-11T03:07:37.571Z,108.20
2023-02-11T03:08:32.831Z,105.33
2023-02-11T03:09:15.222Z,101.90
2023-02-11T03:10:00.838Z,98.00
2023-02-11T03:10:34.682Z,98.67
2023-02-11T03:11:06.584Z,87.30
2023-02-11T03:11:38.479Z,83.67
2023-02-11T03:12:10.334Z,85.50
2023-02-11T03:12:42.410Z,87.30
2023-02-11T03:13:17.122Z,95.93
2023-02-11T03:13:49.012Z,97.87
2023-02-11T03:14:20.845Z,99.10
2023-02-11T03:14:52.767Z,102.83
2023-02-11T03:15:26.305Z,100.57
2023-02-11T03:15:58.266Z,104.97
2023-02-11T03:16:30.158Z,102.80
2023-02-11T03:17:03.135Z,100.90
2023-02-11T03:17:36.118Z,99.20
2023-02-11T03:18:09.345Z,98.97
2023-02-11T03:18:42.725Z,98.20
2023-02-11T03:19:31.124Z,95.73
2023-02-11T03:20:04.413Z,97.10
2023-02-11T03:20:37.143Z,94.47
2023-02-11T03:21:09.058Z,91.90
2023-02-11T03:21:41.555Z,86.70
2023-02-11T03:22:33.871Z,83.90
2023-02-11T03:23:13.561Z,78.63
2023-02-11T03:23:54.136Z,78.50
2023-02-11T03:24:31.094Z,76.00
2023-02-11T03:25:03.104Z,75.23
2023-02-11T03:25:37.449Z,73.83
2023-02-11T03:26:19.808Z,75.47
2023-02-11T03:26:55.445Z,76.77
2023-02-11T03:27:47.408Z,76.00
2023-02-11T03:28:28.154Z,77.20
2023-02-11T03:29:25.849Z,75.00
2023-02-11T03:29:57.510Z,75.47
2023-02-11T03:30:44.358Z,75.43
2023-02-11T03:31:41.334Z,78.03
2023-02-11T03:32:35.902Z,72.97
2023-02-11T03:33:14.283Z,70.80
2023-02-11T03:34:08.764Z,70.80
2023-02-11T03:34:48.409Z,69.33
2023-02-11T03:35:21.913Z,66.87
2023-02-11T03:36:15.407Z,67.80
2023-02-11T03:37:15.202Z,68.03
2023-02-11T03:37:54.596Z,69.93
2023-02-11T03:38:39.937Z,74.60
2023-02-11T03:39:14.474Z,73.30
2023-02-11T03:39:57.758Z,71.13
2023-02-11T03:40:32.130Z,70.73
2023-02-11T03:41:04.806Z,71.67
2023-02-11T03:41:36.655Z,72.90
2023-02-11T03:42:08.952Z,72.80
2023-02-11T03:42:47.079Z,71.57
2023-02-11T03:43:23.214Z,69.77
2023-02-11T03:43:56.674Z,70.23
2023-02-11T03:44:30.928Z,70.37
2023-02-11T03:45:21.758Z,71.40
2023-02-11T03:45:53.979Z,72.33
2023-02-11T03:46:33.845Z,72.13
2023-02-11T03:47:06.133Z,70.50
2023-02-11T03:47:39.238Z,72.80
2023-02-11T03:48:24.485Z,73.83
2023-02-11T03:48:58.899Z,69.87
2023-02-11T03:49:30.704Z,71.97
2023-02-11T03:50:04.452Z,73.30
2023-02-11T03:50:36.334Z,72.37
2023-02-11T03:51:09.416Z,71.93
2023-02-11T03:51:41.278Z,72.83
2023-02-11T03:52:13.148Z,74.23
2023-02-11T03:52:44.898Z,76.10
2023-02-11T03:53:16.664Z,76.60
2023-02-11T03:53:48.455Z,76.00
2023-02-11T03:54:24.139Z,73.00
2023-02-11T03:54:56.652Z,72.27
2023-02-11T03:55:28.634Z,73.40
2023-02-11T03:56:01.339Z,70.43
2023-02-11T03:56:35.724Z,70.80
2023-02-11T03:57:07.681Z,71.17
2023-02-11T03:57:39.567Z,71.70
2023-02-11T03:58:11.424Z,70.50
2023-02-11T03:58:45.507Z,70.37
2023-02-11T03:59:17.413Z,69.47
2023-02-11T03:59:58.867Z,70.63
2023-02-11T04:00:39.689Z,71.37
2023-02-11T04:01:11.568Z,66.47
2023-02-11T04:01:43.402Z,70.37
2023-02-11T04:02:15.274Z,72.37
2023-02-11T04:02:47.186Z,70.50
2023-02-11T04:03:19.234Z,68.27
2023-02-11T04:03:51.090Z,65.60
2023-02-11T04:04:22.892Z,64.70
2023-02-11T04:04:54.981Z,64.00
2023-02-11T04:05:26.765Z,63.40
2023-02-11T04:05:58.547Z,63.67
2023-02-11T04:06:30.342Z,65.57
2023-02-11T04:07:02.137Z,64.33
2023-02-11T04:07:33.973Z,62.53
2023-02-11T04:08:05.960Z,62.00
2023-02-11T04:08:37.808Z,62.83
2023-02-11T04:09:10.125Z,61.87
2023-02-11T04:09:41.972Z,60.37
2023-02-11T04:10:13.812Z,61.53
2023-02-11T04:10:45.629Z,60.73
2023-02-11T04:11:17.475Z,60.43
2023-02-11T04:11:49.354Z,61.40
2023-02-11T04:12:21.267Z,62.33
2023-02-11T04:12:53.071Z,62.60
2023-02-11T04:13:24.964Z,59.80
2023-02-11T04:13:56.789Z,60.77
2023-02-11T04:14:29.176Z,63.03
2023-02-11T04:15:00.950Z,62.17
2023-02-11T04:15:32.963Z,60.63
2023-02-11T04:16:04.956Z,60.23
2023-02-11T04:16:36.874Z,61.10
2023-02-11T04:17:08.754Z,59.03
2023-02-11T04:17:40.565Z,57.47
2023-02-11T04:18:12.388Z,57.70
2023-02-11T04:18:44.193Z,57.27
2023-02-11T04:19:16.041Z,56.70
2023-02-11T04:19:47.877Z,56.93
2023-02-11T04:20:19.819Z,58.33
2023-02-11T04:20:51.653Z,57.80
2023-02-11T04:21:23.455Z,58.10
2023-02-11T04:21:55.302Z,60.23
2023-02-11T04:22:27.181Z,59.50
2023-02-11T04:22:58.988Z,60.03
2023-02-11T04:23:30.810Z,60.70
2023-02-11T04:24:02.685Z,59.73
2023-02-11T04:24:34.763Z,60.30
2023-02-11T04:25:06.946Z,62.33
2023-02-11T04:25:38.796Z,64.37
2023-02-11T04:26:10.645Z,64.23
2023-02-11T04:26:42.782Z,63.70
2023-02-11T04:27:14.644Z,64.80
2023-02-11T04:27:46.446Z,68.00
2023-02-11T04:28:18.275Z,65.47
2023-02-11T04:28:50.078Z,66.07
2023-02-11T04:29:21.995Z,64.07
2023-02-11T04:29:54.363Z,63.17
2023-02-11T04:30:26.220Z,62.97
2023-02-11T04:30:58.093Z,64.60
2023-02-11T04:31:29.953Z,66.17
2023-02-11T04:32:01.831Z,69.20
2023-02-11T04:32:33.630Z,66.90
2023-02-11T04:33:05.455Z,72.27
2023-02-11T04:33:37.228Z,75.87
2023-02-11T04:34:09.027Z,80.07
2023-02-11T04:34:40.867Z,78.83
2023-02-11T04:35:12.690Z,78.00
2023-02-11T04:35:44.479Z,77.60
2023-02-11T04:36:16.263Z,82.07
2023-02-11T04:36:48.088Z,85.37
2023-02-11T04:37:19.986Z,89.50
2023-02-11T04:37:51.798Z,88.07
2023-02-11T04:38:26.576Z,82.87
2023-02-11T04:38:58.412Z,79.27
2023-02-11T04:39:30.188Z,77.87
2023-02-11T04:40:02.052Z,79.40
2023-02-11T04:40:33.881Z,81.40
2023-02-11T04:41:05.753Z,82.30
2023-02-11T04:41:37.537Z,82.47
2023-02-11T04:42:09.311Z,79.37
2023-02-11T04:42:41.080Z,77.77
2023-02-11T04:43:12.906Z,81.03
2023-02-11T04:43:44.686Z,76.73
2023-02-11T04:44:16.667Z,78.13
2023-02-11T04:44:48.489Z,79.23
2023-02-11T04:45:20.390Z,72.50
2023-02-11T04:45:52.554Z,69.90
2023-02-11T04:46:24.707Z,66.17
2023-02-11T04:46:56.525Z,66.63
2023-02-11T04:47:28.369Z,66.23
2023-02-11T04:48:01.445Z,67.27
2023-02-11T04:48:34.920Z,69.23
2023-02-11T04:49:06.728Z,69.47
2023-02-11T04:49:38.502Z,69.70
2023-02-11T04:50:10.381Z,70.23
2023-02-11T04:50:42.217Z,70.43
2023-02-11T04:51:14.043Z,69.87
2023-02-11T04:51:48.908Z,70.87
2023-02-11T04:52:21.140Z,73.73
2023-02-11T04:52:52.954Z,72.10
2023-02-11T04:53:24.751Z,74.37
2023-02-11T04:53:56.571Z,76.20
2023-02-11T04:54:28.414Z,76.67
2023-02-11T04:55:00.851Z,76.40
2023-02-11T04:55:32.632Z,77.37
2023-02-11T04:56:04.675Z,80.50
2023-02-11T04:56:36.583Z,79.73
2023-02-11T04:57:08.584Z,77.47
2023-02-11T04:57:40.492Z,78.90
2023-02-11T04:58:12.317Z,75.60
2023-02-11T04:58:44.192Z,77.27
2023-02-11T04:59:16.048Z,76.10
2023-02-11T04:59:48.966Z,75.93
2023-02-11T05:00:21.033Z,78.83
2023-02-11T05:00:52.873Z,75.73
2023-02-11T05:01:24.777Z,75.10
2023-02-11T05:01:56.974Z,75.87
2023-02-11T05:02:28.762Z,75.13
2023-02-11T05:03:00.548Z,71.70
2023-02-11T05:03:32.360Z,70.33
2023-02-11T05:04:04.409Z,69.17
2023-02-11T05:04:36.218Z,71.00
2023-02-11T05:05:08.711Z,69.37
2023-02-11T05:05:43.293Z,69.27
2023-02-11T05:06:15.122Z,69.10
2023-02-11T05:06:46.956Z,68.03
2023-02-11T05:07:18.790Z,68.27
2023-02-11T05:07:50.636Z,66.83
2023-02-11T05:08:22.466Z,68.93
2023-02-11T05:08:54.305Z,68.70
2023-02-11T05:09:26.075Z,69.90
2023-02-11T05:09:57.876Z,70.90
2023-02-11T05:10:29.733Z,71.60
2023-02-11T05:11:02.369Z,69.37
2023-02-11T05:11:34.154Z,72.70
2023-02-11T05:12:06.166Z,71.77
2023-02-11T05:12:37.962Z,68.47
2023-02-11T05:13:09.736Z,68.43
2023-02-11T05:13:41.556Z,67.73
2023-02-11T05:14:13.343Z,65.40
2023-02-11T05:14:45.097Z,63.53
2023-02-11T05:15:17.136Z,67.50
2023-02-11T05:15:49.200Z,68.53
2023-02-11T05:16:21.339Z,66.67
2023-02-11T05:16:53.310Z,66.27
2023-02-11T05:17:25.159Z,66.40
2023-02-11T05:17:56.969Z,65.00
2023-02-11T05:18:28.783Z,65.10
2023-02-11T05:19:00.768Z,63.30
2023-02-11T05:19:32.713Z,63.47
2023-02-11T05:20:04.842Z,62.93
2023-02-11T05:20:39.031Z,61.07
2023-02-11T05:21:12.663Z,61.90
2023-02-11T05:22:00.227Z,62.23
2023-02-11T05:22:33.748Z,62.87
2023-02-11T05:23:05.585Z,62.77
2023-02-11T05:23:37.513Z,63.73
2023-02-11T05:24:09.399Z,62.27
2023-02-11T05:24:41.259Z,59.70
2023-02-11T05:25:13.102Z,61.10
2023-02-11T05:25:44.916Z,58.10
2023-02-11T05:26:16.817Z,61.97
2023-02-11T05:26:48.679Z,62.20
2023-02-11T05:27:20.520Z,61.43
2023-02-11T05:27:52.323Z,62.10
2023-02-11T05:28:24.184Z,59.63
2023-02-11T05:28:56.485Z,62.40
2023-02-11T05:29:28.595Z,62.23
2023-02-11T05:30:00.410Z,62.50
2023-02-11T05:30:32.363Z,63.27
2023-02-11T05:31:04.415Z,64.53
2023-02-11T05:31:36.210Z,63.87
2023-02-11T05:32:09.159Z,62.90
2023-02-11T05:32:41.032Z,62.13
2023-02-11T05:33:12.823Z,62.70
2023-02-11T05:33:44.651Z,64.33
2023-02-11T05:34:16.565Z,64.87
2023-02-11T05:34:48.422Z,63.90
2023-02-11T05:35:20.274Z,64.90
2023-02-11T05:35:52.355Z,66.77
2023-02-11T05:36:24.276Z,66.03
2023-02-11T05:36:56.179Z,67.27
2023-02-11T05:37:28.225Z,66.90
2023-02-11T05:38:00.059Z,63.43
2023-02-11T05:38:31.892Z,62.53
2023-02-11T05:39:03.856Z,64.33
2023-02-11T05:39:36.060Z,64.93
2023-02-11T05:40:08.173Z,65.50
2023-02-11T05:40:40.005Z,64.47
2023-02-11T05:41:12.048Z,64.53
2023-02-11T05:41:43.878Z,66.23
2023-02-11T05:42:15.706Z,67.70
2023-02-11T05:42:47.492Z,67.33
2023-02-11T05:43:19.370Z,66.63
2023-02-11T05:43:51.246Z,65.83
2023-02-11T05:44:23.154Z,66.43
2023-02-11T05:44:54.925Z,67.70
2023-02-11T05:45:26.803Z,68.30
2023-02-11T05:45:58.746Z,67.70
2023-02-11T05:46:30.626Z,68.20
2023-02-11T05:47:02.479Z,68.33
2023-02-11T05:47:34.465Z,67.70
2023-02-11T05:48:06.293Z,66.77
2023-02-11T05:48:38.110Z,68.57
2023-02-11T05:49:09.987Z,68.87
2023-02-11T05:49:41.780Z,66.87
2023-02-11T05:50:13.599Z,69.17
2023-02-11T05:50:45.626Z,69.70
2023-02-11T05:51:17.450Z,69.20
2023-02-11T05:51:49.270Z,69.07
2023-02-11T05:52:21.896Z,67.83
2023-02-11T05:52:53.673Z,69.77
2023-02-11T05:53:25.845Z,67.70
2023-02-11T05:53:57.695Z,67.20
2023-02-11T05:54:29.570Z,64.93
2023-02-11T05:55:01.674Z,64.87
2023-02-11T05:55:33.727Z,67.83
2023-02-11T05:56:05.990Z,66.83
2023-02-11T05:56:37.772Z,67.07
2023-02-11T05:57:09.627Z,68.23
2023-02-11T05:57:41.460Z,69.67
2023-02-11T05:58:13.772Z,69.73
2023-02-11T05:58:45.552Z,69.17
2023-02-11T05:59:17.317Z,69.57
2023-02-11T05:59:49.111Z,70.10
2023-02-11T06:00:20.892Z,69.87
2023-02-11T06:00:52.768Z,70.37
2023-02-11T06:01:24.652Z,67.63
2023-02-11T06:01:56.460Z,67.37
2023-02-11T06:02:28.924Z,67.73
2023-02-11T06:03:00.891Z,67.97
2023-02-11T06:03:32.841Z,69.73
2023-02-11T06:04:04.690Z,69.77
2023-02-11T06:04:36.752Z,69.50
2023-02-11T06:05:08.901Z,71.27
2023-02-11T06:05:40.742Z,70.13
2023-02-11T06:06:12.749Z,70.70
2023-02-11T06:06:44.545Z,73.17
2023-02-11T06:07:17.721Z,71.90
2023-02-11T06:07:49.568Z,74.87
2023-02-11T06:08:21.393Z,69.87
2023-02-11T06:08:53.216Z,70.67
2023-02-11T06:09:25.001Z,73.33
2023-02-11T06:09:56.822Z,73.37
2023-02-11T06:10:28.727Z,74.30
2023-02-11T06:11:00.559Z,75.23
2023-02-11T06:11:32.386Z,73.73
2023-02-11T06:12:04.422Z,73.33
2023-02-11T06:12:36.956Z,73.20
2023-02-11T06:13:08.814Z,71.33
2023-02-11T06:13:40.615Z,67.80
2023-02-11T06:14:12.470Z,67.00
2023-02-11T06:14:44.443Z,70.10
2023-02-11T06:15:16.300Z,71.53
2023-02-11T06:15:56.685Z,70.43
2023-02-11T06:16:28.576Z,71.73
2023-02-11T06:17:00.795Z,70.57
2023-02-11T06:17:33.828Z,69.57
2023-02-11T06:18:05.725Z,71.43
2023-02-11T06:18:37.609Z,72.10
2023-02-11T06:19:09.468Z,71.53
2023-02-11T06:19:41.255Z,70.97
2023-02-11T06:20:13.572Z,73.77
2023-02-11T06:20:45.386Z,74.33
2023-02-11T06:21:17.232Z,72.93
2023-02-11T06:21:49.010Z,73.97
2023-02-11T06:22:20.832Z,75.83
2023-02-11T06:22:52.642Z,75.80
2023-02-11T06:23:24.492Z,75.10
2023-02-11T06:23:56.317Z,76.80
2023-02-11T06:24:50.963Z,79.73
2023-02-11T06:25:20.005Z,79.30
2023-02-11T06:25:52.811Z,81.80
2023-02-11T06:26:24.881Z,89.90
2023-02-11T06:26:56.662Z,96.73
2023-02-11T06:27:28.477Z,101.03
2023-02-11T06:28:00.348Z,106.30
2023-02-11T06:28:32.794Z,141.87
2023-02-11T06:29:04.608Z,143.80
2023-02-11T06:29:36.421Z,146.17
2023-02-11T06:30:08.970Z,160.50
2023-02-11T06:30:40.786Z,162.23
2023-02-11T06:31:12.883Z,162.37
2023-02-11T06:31:44.821Z,164.47
2023-02-11T06:32:36.872Z,157.73
2023-02-11T06:33:09.529Z,144.43
2023-02-11T06:33:41.368Z,141.77
2023-02-11T06:34:13.181Z,138.27
2023-02-11T06:34:45.651Z,136.07
2023-02-11T06:35:17.501Z,136.03
2023-02-11T06:35:49.643Z,135.53
2023-02-11T06:36:22.143Z,135.70
2023-02-11T06:36:53.982Z,137.17
2023-02-11T06:37:25.818Z,141.43
2023-02-11T06:37:57.606Z,140.03
2023-02-11T06:38:29.423Z,140.27
2023-02-11T06:39:01.262Z,138.33
2023-02-11T06:39:33.104Z,135.60
2023-02-11T06:40:05.234Z,165.20
2023-02-11T06:40:36.995Z,173.20
2023-02-11T06:41:12.529Z,144.43
2023-02-11T06:41:44.375Z,142.97
2023-02-11T06:42:16.217Z,138.73
2023-02-11T06:42:48.468Z,131.67
2023-02-11T06:43:20.241Z,127.13
2023-02-11T06:43:52.798Z,127.90
2023-02-11T06:44:24.748Z,129.80
2023-02-11T06:44:56.577Z,131.13
2023-02-11T06:45:28.450Z,130.77
2023-02-11T06:46:00.307Z,133.13
2023-02-11T06:46:32.263Z,132.30
2023-02-11T06:47:04.166Z,137.93
2023-02-11T06:47:35.993Z,142.67
2023-02-11T06:48:08.624Z,142.87
2023-02-11T06:48:41.657Z,139.17
2023-02-11T06:49:14.954Z,140.00
2023-02-11T06:49:46.756Z,140.30
2023-02-11T06:50:18.639Z,139.93
2023-02-11T06:50:50.485Z,141.50
2023-02-11T06:51:22.355Z,142.93
2023-02-11T06:51:54.703Z,141.63
2023-02-11T06:52:26.668Z,146.47
2023-02-11T06:53:00.039Z,144.77
2023-02-11T06:53:38.798Z,140.90
2023-02-11T06:54:11.639Z,141.57
2023-02-11T06:54:43.508Z,139.80
2023-02-11T06:55:15.301Z,139.47
2023-02-11T06:55:47.114Z,144.17
2023-02-11T06:56:20.321Z,144.90
2023-02-11T06:56:52.249Z,147.23
2023-02-11T06:57:24.101Z,141.37
2023-02-11T06:57:55.868Z,137.60
2023-02-11T06:58:27.680Z,134.07
2023-02-11T06:58:59.706Z,135.17
2023-02-11T06:59:31.451Z,138.53
2023-02-11T07:00:04.949Z,136.37
2023-02-11T07:00:37.542Z,133.77
2023-02-11T07:01:11.021Z,138.07
2023-02-11T07:01:42.946Z,134.50
2023-02-11T07:02:14.852Z,138.60
2023-02-11T07:02:46.801Z,138.53
2023-02-11T07:03:18.773Z,139.00
2023-02-11T07:03:50.735Z,140.13
2023-02-11T07:04:22.956Z,138.53
2023-02-11T07:04:54.756Z,145.20
2023-02-11T07:05:26.658Z,150.90
2023-02-11T07:05:58.456Z,153.73
2023-02-11T07:06:30.302Z,157.57
2023-02-11T07:07:02.150Z,151.30
2023-02-11T07:07:34.350Z,151.27
2023-02-11T07:08:06.385Z,144.27
2023-02-11T07:08:38.598Z,137.47
2023-02-11T07:09:10.526Z,136.77
2023-02-11T07:09:42.392Z,137.23
2023-02-11T07:10:14.223Z,141.30
2023-02-11T07:10:46.117Z,141.30
2023-02-11T07:11:21.055Z,134.93
2023-02-11T07:11:52.815Z,133.97
2023-02-11T07:12:24.604Z,139.70
2023-02-11T07:12:58.720Z,138.07
2023-02-11T07:13:30.645Z,137.63
2023-02-11T07:14:04.379Z,131.80
2023-02-11T07:14:36.198Z,135.13
2023-02-11T07:15:08.424Z,136.57
2023-02-11T07:15:40.253Z,139.33
2023-02-11T07:16:15.980Z,139.33
2023-02-11T07:16:47.785Z,140.43
2023-02-11T07:17:19.556Z,141.43
2023-02-11T07:17:51.346Z,137.57
2023-02-11T07:18:23.089Z,137.73
2023-02-11T07:18:54.965Z,140.43
2023-02-11T07:19:26.812Z,139.63